Time;durP1;ratioP1;P1;durP2;ratioP2;P2;SDS_P1;SDS_P2;PMS_P1;PMS_P2;Temp;Humidity;BMP_temperature;BMP_pressure;BME280_temperature;BME280_humidity;BME280_pressure;Samples;Min_cycle;Max_cycle;Signal;HPM_P1;HPM_P2
2020/12/05 00:00:45;;;;;;;;;;;;;;;21.95;28.40;98114.00;5079779;28;1978;-74
2020/12/05 00:03:11;;;;;;;;;;;;;;;22.28;27.55;98123.28;5062129;28;913;-74
2020/12/05 00:05:36;;;;;;;;;;;;;;;22.53;27.10;98124.59;5079371;28;852;-74
2020/12/05 00:08:02;;;;;;;;;;;;;;;22.61;27.05;98126.00;5079736;28;892;-74
2020/12/05 00:10:28;;;;;;;;;;;;;;;22.12;27.33;98114.78;5079708;28;627;-74
2020/12/05 00:12:53;;;;;;;;;;;;;;;21.73;28.15;98119.41;5079589;28;614;-73
2020/12/05 00:15:18;;;;;;;;;;;;;;;21.68;28.31;98122.78;5080219;28;657;-74
2020/12/05 00:17:44;;;;;;;;;;;;;;;21.77;28.53;98125.81;5083364;28;863;-73
2020/12/05 00:20:09;;;;;;;;;;;;;;;22.01;28.05;98117.09;5083287;28;1906;-73
2020/12/05 00:22:35;;;;;;;;;;;;;;;22.32;27.38;98117.50;5083624;28;999;-74
2020/12/05 00:25:00;;;;;;;;;;;;;;;22.43;27.30;98120.03;5084363;28;625;-73
2020/12/05 00:27:26;;;;;;;;;;;;;;;22.65;26.82;98121.03;5083837;28;658;-74
2020/12/05 00:29:51;;;;;;;;;;;;;;;22.00;27.56;98132.50;5083172;28;929;-74
2020/12/05 00:32:17;;;;;;;;;;;;;;;21.87;27.77;98128.81;5083259;28;792;-74
2020/12/05 00:34:43;;;;;;;;;;;;;;;21.42;28.57;98129.50;5083318;28;825;-73
2020/12/05 00:37:08;;;;;;;;;;;;;;;21.62;28.98;98130.22;5083360;28;711;-74
2020/12/05 00:39:34;;;;;;;;;;;;;;;21.96;28.06;98137.44;5083226;28;1905;-74
2020/12/05 00:41:59;;;;;;;;;;;;;;;22.24;27.70;98133.91;5083365;28;622;-74
2020/12/05 00:44:25;;;;;;;;;;;;;;;22.31;27.48;98130.06;5065698;28;1059;-74
2020/12/05 00:46:50;;;;;;;;;;;;;;;22.64;26.83;98136.47;5082929;28;881;-74
2020/12/05 00:49:16;;;;;;;;;;;;;;;22.04;27.41;98131.16;5083026;28;1234;-74
2020/12/05 00:51:42;;;;;;;;;;;;;;;21.68;27.87;98128.44;5065658;28;1254;-74
2020/12/05 00:54:07;;;;;;;;;;;;;;;21.40;28.27;98138.44;5065899;28;1190;-74
2020/12/05 00:56:33;;;;;;;;;;;;;;;21.47;28.35;98129.78;5065486;28;1202;-74
2020/12/05 00:58:58;;;;;;;;;;;;;;;22.06;28.13;98127.88;5083011;28;915;-74
2020/12/05 01:01:24;;;;;;;;;;;;;;;22.61;27.14;98126.00;5082695;28;1992;-74
2020/12/05 01:03:49;;;;;;;;;;;;;;;22.64;26.76;98119.44;5083087;28;665;-73
2020/12/05 01:06:15;;;;;;;;;;;;;;;22.67;26.59;98129.88;5083214;28;681;-74
2020/12/05 01:08:40;;;;;;;;;;;;;;;21.93;27.72;98127.03;5082751;28;590;-74
2020/12/05 01:11:12;;;;;;;;;;;;;;;21.26;28.33;98130.25;5082662;28;947;-74
2020/12/05 01:13:38;;;;;;;;;;;;;;;21.18;28.72;98112.63;5082432;28;930;-74
2020/12/05 01:16:03;;;;;;;;;;;;;;;21.90;28.39;98133.56;5082672;28;1027;-73
2020/12/05 01:18:29;;;;;;;;;;;;;;;22.33;27.54;98134.06;5082570;28;658;-73
2020/12/05 01:20:54;;;;;;;;;;;;;;;22.73;26.78;98132.94;5082804;28;1969;-74
2020/12/05 01:23:20;;;;;;;;;;;;;;;22.67;26.78;98127.03;5082443;28;719;-74
2020/12/05 01:25:45;;;;;;;;;;;;;;;22.59;26.70;98122.81;5082557;28;932;-74
2020/12/05 01:28:11;;;;;;;;;;;;;;;21.35;28.29;98115.50;5081759;28;813;-74
2020/12/05 01:30:36;;;;;;;;;;;;;;;21.45;28.04;98114.44;5082324;28;857;-73
2020/12/05 01:33:02;;;;;;;;;;;;;;;21.72;28.38;98128.38;5082417;28;603;-74
2020/12/05 01:35:27;;;;;;;;;;;;;;;22.20;27.61;98129.56;5082287;28;725;-73
2020/12/05 01:37:53;;;;;;;;;;;;;;;22.46;27.26;98127.66;5082133;28;912;-74
2020/12/05 01:40:18;;;;;;;;;;;;;;;22.77;26.63;98131.59;5082250;28;1906;-73
2020/12/05 01:42:43;;;;;;;;;;;;;;;22.96;26.24;98131.91;5082210;28;852;-74
2020/12/05 01:45:09;;;;;;;;;;;;;;;22.10;27.00;98132.25;5082406;28;689;-74
2020/12/05 01:47:35;;;;;;;;;;;;;;;21.75;27.61;98155.78;5081919;28;1029;-74
2020/12/05 01:50:00;;;;;;;;;;;;;;;21.34;28.33;98131.69;5065073;28;606;-73
2020/12/05 01:52:26;;;;;;;;;;;;;;;21.19;29.16;98134.06;5064287;28;932;-73
2020/12/05 01:54:51;;;;;;;;;;;;;;;22.16;27.51;98141.00;5081711;28;891;-74
2020/12/05 01:57:17;;;;;;;;;;;;;;;22.49;27.04;98146.63;5082205;28;950;-73
2020/12/05 01:59:42;;;;;;;;;;;;;;;22.54;26.69;98137.56;5064405;28;1930;-74
2020/12/05 02:02:08;;;;;;;;;;;;;;;22.33;26.77;98134.06;5081704;28;648;-74
2020/12/05 02:04:38;;;;;;;;;;;;;;;21.74;27.91;98132.34;5081683;28;1009;-74
2020/12/05 02:07:11;;;;;;;;;;;;;;;21.33;28.23;98130.09;5064148;28;939;-73
2020/12/05 02:09:38;;;;;;;;;;;;;;;21.43;28.19;98137.53;5064487;28;661;-74
2020/12/05 02:12:04;;;;;;;;;;;;;;;21.88;28.15;98127.56;5081576;28;654;-74
2020/12/05 02:14:29;;;;;;;;;;;;;;;22.38;27.03;98129.88;5081463;28;598;-74
2020/12/05 02:16:55;;;;;;;;;;;;;;;22.71;26.57;98122.06;5064468;28;603;-74
2020/12/05 02:19:20;;;;;;;;;;;;;;;22.69;26.44;98127.41;5064205;28;1977;-74
2020/12/05 02:21:46;;;;;;;;;;;;;;;22.06;27.45;98120.16;5081088;28;924;-73
2020/12/05 02:24:11;;;;;;;;;;;;;;;21.36;28.34;98123.56;5063981;28;994;-73
2020/12/05 02:26:37;;;;;;;;;;;;;;;21.40;28.31;98129.13;5064066;28;678;-73
2020/12/05 02:29:03;;;;;;;;;;;;;;;21.53;28.53;98130.84;5063877;28;856;-74
2020/12/05 02:31:28;;;;;;;;;;;;;;;22.20;27.61;98136.03;5081161;28;658;-73
2020/12/05 02:33:54;;;;;;;;;;;;;;;22.36;27.19;98132.38;5081033;28;902;-73
2020/12/05 02:36:19;;;;;;;;;;;;;;;22.64;26.68;98136.47;5081199;28;828;-73
2020/12/05 02:38:44;;;;;;;;;;;;;;;22.72;26.60;98137.03;5080517;28;887;-74
2020/12/05 02:41:10;;;;;;;;;;;;;;;21.72;27.64;98134.81;5081229;28;1982;-74
2020/12/05 02:43:35;;;;;;;;;;;;;;;21.20;28.59;98132.81;5081055;28;646;-73
2020/12/05 02:46:01;;;;;;;;;;;;;;;21.33;28.03;98130.91;5063306;28;1051;-74
2020/12/05 02:48:26;;;;;;;;;;;;;;;21.67;28.23;98126.88;5063514;28;1128;-73
2020/12/05 02:50:52;;;;;;;;;;;;;;;22.18;27.37;98132.88;5080884;28;993;-74
2020/12/05 02:53:17;;;;;;;;;;;;;;;22.64;26.52;98133.63;5081037;28;590;-73
2020/12/05 02:55:43;;;;;;;;;;;;;;;22.68;26.55;98128.63;5080710;28;666;-74
2020/12/05 02:58:08;;;;;;;;;;;;;;;22.53;26.83;98133.09;5080961;28;626;-73
2020/12/05 03:00:34;;;;;;;;;;;;;;;22.56;26.66;98129.38;5080701;28;1898;-74
2020/12/05 03:02:59;;;;;;;;;;;;;;;21.74;27.78;98140.84;5080257;28;833;-73
2020/12/05 03:05:25;;;;;;;;;;;;;;;21.57;27.78;98139.25;5080424;28;806;-74
2020/12/05 03:07:50;;;;;;;;;;;;;;;21.61;27.73;98131.47;5080908;28;653;-73
2020/12/05 03:10:16;;;;;;;;;;;;;;;21.41;28.05;98142.06;5080390;28;667;-74
2020/12/05 03:12:41;;;;;;;;;;;;;;;21.37;28.66;98135.69;5080442;28;649;-74
2020/12/05 03:15:07;;;;;;;;;;;;;;;22.01;27.77;98140.53;5080054;28;1056;-73
2020/12/05 03:17:32;;;;;;;;;;;;;;;22.61;26.82;98134.50;5080481;28;805;-74
2020/12/05 03:19:58;;;;;;;;;;;;;;;22.67;26.55;98138.38;5080068;28;1967;-73
2020/12/05 03:22:23;;;;;;;;;;;;;;;22.85;26.16;98147.19;5080227;28;603;-74
2020/12/05 03:24:49;;;;;;;;;;;;;;;22.15;27.19;98147.91;5080352;28;674;-73
2020/12/05 03:27:14;;;;;;;;;;;;;;;21.82;27.65;98145.09;5080241;28;658;-73
2020/12/05 03:29:40;;;;;;;;;;;;;;;21.39;28.28;98150.19;5079852;28;1044;-74
2020/12/05 03:32:16;;;;;;;;;;;;;;;22.06;27.46;98157.00;5080166;28;793;-74
2020/12/05 03:34:42;;;;;;;;;;;;;;;22.28;27.02;98154.47;5080466;28;867;-74
2020/12/05 03:37:10;;;;;;;;;;;;;;;22.52;26.86;98157.03;5080175;28;665;-73
2020/12/05 03:39:36;;;;;;;;;;;;;;;22.53;26.71;98152.94;5080253;28;1964;-74
2020/12/05 03:42:01;;;;;;;;;;;;;;;22.27;26.88;98155.69;5080366;28;721;-74
2020/12/05 03:44:27;;;;;;;;;;;;;;;21.83;27.62;98157.22;5079967;28;932;-74
2020/12/05 03:46:52;;;;;;;;;;;;;;;21.65;27.58;98163.31;5080056;28;900;-73
2020/12/05 03:49:18;;;;;;;;;;;;;;;21.49;27.73;98160.47;5079624;28;1112;-74
2020/12/05 03:51:43;;;;;;;;;;;;;;;21.95;27.61;98172.69;5079857;28;686;-73
2020/12/05 03:54:08;;;;;;;;;;;;;;;22.40;27.03;98172.75;5080158;28;706;-73
2020/12/05 03:56:34;;;;;;;;;;;;;;;22.58;26.69;98177.94;5080141;28;630;-73
2020/12/05 03:58:59;;;;;;;;;;;;;;;22.37;26.66;98173.66;5079515;28;991;-73
2020/12/05 04:01:25;;;;;;;;;;;;;;;21.83;27.47;98182.72;5079533;28;1994;-74
2020/12/05 04:03:51;;;;;;;;;;;;;;;21.70;27.73;98188.25;5079632;28;718;-73
2020/12/05 04:06:16;;;;;;;;;;;;;;;21.46;27.97;98181.97;5079733;28;655;-74
2020/12/05 04:08:42;;;;;;;;;;;;;;;21.51;28.62;98181.44;5079603;28;670;-74
2020/12/05 04:11:07;;;;;;;;;;;;;;;22.15;27.44;98175.47;5079500;28;987;-73
2020/12/05 04:13:33;;;;;;;;;;;;;;;22.26;27.19;98184.47;5079489;28;789;-73
2020/12/05 04:15:59;;;;;;;;;;;;;;;22.48;26.56;98184.69;5079883;28;972;-74
2020/12/05 04:18:24;;;;;;;;;;;;;;;22.62;26.53;98181.47;5080020;28;698;-74
2020/12/05 04:20:50;;;;;;;;;;;;;;;22.06;27.09;98176.84;5079750;28;1906;-73
2020/12/05 04:23:15;;;;;;;;;;;;;;;21.91;27.29;98186.16;5079531;28;640;-73
2020/12/05 04:25:41;;;;;;;;;;;;;;;21.50;27.79;98181.88;5079193;28;976;-74
2020/12/05 04:28:06;;;;;;;;;;;;;;;21.46;28.46;98178.34;5079414;28;930;-74
2020/12/05 04:30:32;;;;;;;;;;;;;;;22.03;27.50;98183.41;5079372;28;844;-73
2020/12/05 04:32:57;;;;;;;;;;;;;;;22.25;27.20;98194.22;5079786;28;662;-74
2020/12/05 04:35:23;;;;;;;;;;;;;;;22.54;26.80;98189.41;5079625;28;603;-73
2020/12/05 04:37:48;;;;;;;;;;;;;;;22.31;26.72;98193.22;5079765;28;621;-73
2020/12/05 04:40:14;;;;;;;;;;;;;;;21.95;27.23;98193.31;5079028;28;1981;-73
2020/12/05 04:42:45;;;;;;;;;;;;;;;21.72;27.27;98190.69;5079114;28;801;-74
2020/12/05 04:45:11;;;;;;;;;;;;;;;21.61;28.13;98190.13;5062120;28;915;-74
2020/12/05 04:47:38;;;;;;;;;;;;;;;22.10;27.15;98188.91;5079529;28;1046;-74
2020/12/05 04:50:03;;;;;;;;;;;;;;;22.57;26.66;98193.34;5062143;28;614;-74
2020/12/05 04:52:32;;;;;;;;;;;;;;;22.44;26.70;98201.03;5079439;28;614;-74
2020/12/05 04:54:57;;;;;;;;;;;;;;;22.61;26.27;98199.75;5079117;28;861;-74
2020/12/05 04:57:24;;;;;;;;;;;;;;;22.07;26.66;98211.63;5078903;28;846;-74
2020/12/05 04:59:49;;;;;;;;;;;;;;;21.36;27.67;98207.69;5078907;28;1975;-73
2020/12/05 05:02:16;;;;;;;;;;;;;;;21.45;28.01;98202.19;5081010;28;656;-74
2020/12/05 05:04:41;;;;;;;;;;;;;;;21.59;27.84;98205.50;5065632;28;678;-73
2020/12/05 05:07:07;;;;;;;;;;;;;;;21.79;27.86;98208.28;5082697;28;1092;-73
2020/12/05 05:09:32;;;;;;;;;;;;;;;22.15;27.30;98213.09;5082499;28;886;-74
2020/12/05 05:11:58;;;;;;;;;;;;;;;22.55;26.27;98221.38;5082496;28;969;-73
2020/12/05 05:14:33;;;;;;;;;;;;;;;22.64;26.34;98215.88;5082769;28;635;-72
2020/12/05 05:17:08;;;;;;;;;;;;;;;21.98;27.24;98220.00;5083034;28;649;-73
2020/12/05 05:19:34;;;;;;;;;;;;;;;21.75;27.61;98224.56;5082644;28;1907;-73
2020/12/05 05:22:00;;;;;;;;;;;;;;;21.31;28.08;98229.59;5082283;28;1041;-73
2020/12/05 05:24:25;;;;;;;;;;;;;;;21.48;28.07;98226.81;5082143;28;858;-73
2020/12/05 05:27:00;;;;;;;;;;;;;;;21.88;27.83;98229.53;5082401;28;971;-73
2020/12/05 05:29:28;;;;;;;;;;;;;;;22.34;26.82;98232.03;5082466;28;711;-73
2020/12/05 05:31:58;;;;;;;;;;;;;;;22.52;26.46;98237.22;5082409;28;625;-73
2020/12/05 05:34:24;;;;;;;;;;;;;;;22.71;26.31;98226.22;5081936;28;814;-74
2020/12/05 05:36:49;;;;;;;;;;;;;;;21.68;27.60;98224.75;5081907;28;933;-73
2020/12/05 05:39:16;;;;;;;;;;;;;;;21.64;27.57;98235.34;5082397;28;833;-73
2020/12/05 05:41:45;;;;;;;;;;;;;;;21.67;27.58;98242.19;5082536;28;2040;-73
2020/12/05 05:44:11;;;;;;;;;;;;;;;21.77;27.97;98227.75;5082376;28;642;-73
2020/12/05 05:46:40;;;;;;;;;;;;;;;22.22;27.08;98246.91;5082271;28;666;-73
2020/12/05 05:49:05;;;;;;;;;;;;;;;22.59;26.42;98248.41;5081643;28;992;-73
2020/12/05 05:51:43;;;;;;;;;;;;;;;21.90;27.40;98246.88;5081754;28;857;-73
2020/12/05 05:54:09;;;;;;;;;;;;;;;21.69;27.49;98257.47;5081910;28;622;-73
2020/12/05 05:56:35;;;;;;;;;;;;;;;21.76;27.91;98262.16;5082244;28;624;-73
2020/12/05 05:59:00;;;;;;;;;;;;;;;22.03;27.34;98256.28;5081813;28;820;-73
2020/12/05 06:01:25;;;;;;;;;;;;;;;22.25;26.84;98260.22;5081702;28;1975;-73
2020/12/05 06:03:51;;;;;;;;;;;;;;;22.34;26.93;98260.41;5063995;28;998;-73
2020/12/05 06:06:16;;;;;;;;;;;;;;;22.54;26.46;98262.34;5081357;28;916;-73
2020/12/05 06:08:42;;;;;;;;;;;;;;;22.51;26.42;98263.22;5064201;28;1022;-74
2020/12/05 06:11:10;;;;;;;;;;;;;;;21.89;27.18;98270.78;5064138;28;591;-74
2020/12/05 06:13:36;;;;;;;;;;;;;;;21.49;28.03;98263.19;5080401;28;614;-74
2020/12/05 06:16:01;;;;;;;;;;;;;;;21.20;28.41;98265.00;5081804;28;666;-71
2020/12/05 06:18:27;;;;;;;;;;;;;;;21.61;28.20;98258.09;5081456;28;875;-74
2020/12/05 06:20:52;;;;;;;;;;;;;;;22.15;27.53;98258.44;5081021;28;1969;-73
2020/12/05 06:23:36;;;;;;;;;;;;;;;22.24;27.20;98255.78;5081390;28;970;-73
2020/12/05 06:26:02;;;;;;;;;;;;;;;22.40;27.04;98254.97;5081332;28;663;-73
2020/12/05 06:28:27;;;;;;;;;;;;;;;22.37;26.71;98258.69;5064048;28;738;-73
2020/12/05 06:30:53;;;;;;;;;;;;;;;21.67;27.74;98262.00;5063932;28;606;-74
2020/12/05 06:33:38;;;;;;;;;;;;;;;21.30;28.14;98258.34;5080886;28;1031;-75
2020/12/05 06:36:22;;;;;;;;;;;;;;;21.54;27.91;98259.03;5081094;28;837;-75
2020/12/05 06:38:48;;;;;;;;;;;;;;;21.43;28.20;98264.13;5076246;28;1016;-79
2020/12/05 06:41:20;;;;;;;;;;;;;;;22.02;27.56;98272.50;5044033;28;1914;-75
2020/12/05 06:43:52;;;;;;;;;;;;;;;22.35;26.95;98267.66;5042810;28;1226;-75
2020/12/05 06:46:40;;;;;;;;;;;;;;;22.42;26.86;98274.38;5041603;28;916;-75
2020/12/05 06:49:06;;;;;;;;;;;;;;;22.54;26.65;98273.69;5076144;28;1033;-75
2020/12/05 06:51:32;;;;;;;;;;;;;;;22.20;26.95;98269.25;5079977;28;790;-75
2020/12/05 06:53:57;;;;;;;;;;;;;;;21.44;28.05;98271.38;5071780;28;652;-76
2020/12/05 06:56:23;;;;;;;;;;;;;;;21.37;28.06;98271.56;5044137;28;824;-77
2020/12/05 06:58:54;;;;;;;;;;;;;;;21.37;28.32;98271.56;5060641;28;707;-75
2020/12/05 07:01:26;;;;;;;;;;;;;;;22.05;27.28;98276.47;5075884;28;1984;-76
2020/12/05 07:03:52;;;;;;;;;;;;;;;22.39;26.69;98272.44;5060012;28;867;-76
2020/12/05 07:06:23;;;;;;;;;;;;;;;22.61;26.27;98273.47;5060649;28;918;-75
2020/12/05 07:08:52;;;;;;;;;;;;;;;22.72;26.33;98268.31;5076323;28;628;-77
2020/12/05 07:11:18;;;;;;;;;;;;;;;21.93;27.25;98268.69;5060879;28;602;-76
2020/12/05 07:13:50;;;;;;;;;;;;;;;21.64;27.84;98272.16;5060268;28;729;-77
2020/12/05 07:16:25;;;;;;;;;;;;;;;21.46;28.08;98263.28;5087269;28;943;-78
2020/12/05 07:18:54;;;;;;;;;;;;;;;21.86;28.01;98269.63;5082284;28;849;-77
2020/12/05 07:21:20;;;;;;;;;;;;;;;22.22;27.42;98271.63;5100838;28;1906;-77
2020/12/05 07:23:46;;;;;;;;;;;;;;;22.31;27.17;98269.78;5083216;28;598;-76
2020/12/05 07:26:11;;;;;;;;;;;;;;;22.53;26.99;98269.22;5101240;28;634;-77
2020/12/05 07:28:37;;;;;;;;;;;;;;;22.06;27.12;98269.56;5100756;28;618;-76
2020/12/05 07:31:02;;;;;;;;;;;;;;;21.44;28.12;98269.34;5100750;28;981;-77
2020/12/05 07:33:28;;;;;;;;;;;;;;;21.15;28.63;98266.31;5099725;28;854;-76
2020/12/05 07:35:57;;;;;;;;;;;;;;;21.64;28.02;98279.84;5083117;28;959;-76
2020/12/05 07:38:22;;;;;;;;;;;;;;;21.92;28.14;98272.75;5100302;28;646;-76
2020/12/05 07:40:48;;;;;;;;;;;;;;;22.20;28.18;98283.41;5100306;28;1901;-71
2020/12/05 07:43:17;;;;;;;;;;;;;;;22.42;27.41;98282.88;5100589;28;649;-77
2020/12/05 07:45:42;;;;;;;;;;;;;;;22.29;27.39;98285.66;5083343;28;904;-77
2020/12/05 07:48:12;;;;;;;;;;;;;;;21.75;27.83;98280.41;5082346;28;1159;-77
2020/12/05 07:50:37;;;;;;;;;;;;;;;21.98;27.62;98290.81;5100661;28;941;-76
2020/12/05 07:53:03;;;;;;;;;;;;;;;21.38;28.01;98284.47;5099991;28;670;-77
2020/12/05 07:55:29;;;;;;;;;;;;;;;21.58;28.21;98283.19;5100660;28;630;-76
2020/12/05 07:57:57;;;;;;;;;;;;;;;21.77;28.55;98290.06;5099977;28;637;-77
2020/12/05 08:00:23;;;;;;;;;;;;;;;22.12;27.54;98284.81;5100028;28;1988;-77
2020/12/05 08:03:17;;;;;;;;;;;;;;;22.41;27.04;98298.31;5099657;28;938;-76
2020/12/05 08:05:58;;;;;;;;;;;;;;;22.38;26.96;98296.34;5087443;28;1146;-77
2020/12/05 08:08:26;;;;;;;;;;;;;;;21.90;27.63;98300.72;5082556;28;868;-76
2020/12/05 08:10:52;;;;;;;;;;;;;;;21.54;28.30;98301.50;5082875;28;697;-77
2020/12/05 08:13:25;;;;;;;;;;;;;;;21.53;28.21;98302.75;5081977;28;1273;-77
2020/12/05 08:16:10;;;;;;;;;;;;;;;21.45;28.47;98295.63;5100083;28;858;-76
2020/12/05 08:18:36;;;;;;;;;;;;;;;21.54;28.33;98310.78;5098213;28;1057;-76
2020/12/05 08:21:02;;;;;;;;;;;;;;;21.95;27.86;98311.53;5062521;28;1981;-77
2020/12/05 08:23:28;;;;;;;;;;;;;;;22.36;27.15;98320.28;5062142;28;893;-76
2020/12/05 08:25:57;;;;;;;;;;;;;;;22.51;26.66;98317.09;5079959;28;883;-75
2020/12/05 08:28:23;;;;;;;;;;;;;;;22.57;26.66;98309.63;5078938;28;868;-75
2020/12/05 08:30:49;;;;;;;;;;;;;;;21.95;27.40;98312.31;5061636;28;927;-76
2020/12/05 08:33:14;;;;;;;;;;;;;;;21.78;27.90;98303.00;5078920;28;962;-77
2020/12/05 08:35:40;;;;;;;;;;;;;;;21.66;27.76;98306.50;5062650;28;986;-77
2020/12/05 08:38:06;;;;;;;;;;;;;;;21.43;28.27;98310.22;5085204;28;884;-77
2020/12/05 08:40:32;;;;;;;;;;;;;;;21.99;27.75;98312.25;5086062;28;1962;-76
2020/12/05 08:42:57;;;;;;;;;;;;;;;22.20;27.16;98317.44;5102846;28;916;-77
2020/12/05 08:45:23;;;;;;;;;;;;;;;22.35;26.97;98307.34;5103753;28;976;-77
2020/12/05 08:47:49;;;;;;;;;;;;;;;22.51;26.86;98308.56;5095145;28;994;-77
2020/12/05 08:50:21;;;;;;;;;;;;;;;22.10;27.02;98313.59;5065422;28;829;-76
2020/12/05 08:52:47;;;;;;;;;;;;;;;21.74;27.61;98307.13;5066210;28;853;-77
2020/12/05 08:55:12;;;;;;;;;;;;;;;21.69;27.73;98307.66;5083459;28;623;-77
2020/12/05 08:57:38;;;;;;;;;;;;;;;21.57;27.91;98309.13;5075716;28;1361;-76
2020/12/05 09:00:03;;;;;;;;;;;;;;;21.39;28.25;98308.69;5102932;28;1973;-77
2020/12/05 09:02:35;;;;;;;;;;;;;;;21.55;28.61;98312.41;5103034;28;872;-77
2020/12/05 09:05:01;;;;;;;;;;;;;;;22.16;27.36;98308.22;5086334;28;840;-76
2020/12/05 09:07:26;;;;;;;;;;;;;;;22.38;27.04;98311.31;5103451;28;638;-75
2020/12/05 09:09:51;;;;;;;;;;;;;;;22.60;26.50;98308.75;5102535;28;900;-77
2020/12/05 09:12:17;;;;;;;;;;;;;;;22.49;26.55;98306.19;5102672;28;868;-77
2020/12/05 09:14:43;;;;;;;;;;;;;;;21.98;27.39;98299.31;5102743;28;868;-76
2020/12/05 09:17:30;;;;;;;;;;;;;;;21.67;27.74;98290.31;5083375;28;1193;-76
2020/12/05 09:20:14;;;;;;;;;;;;;;;21.61;28.13;98294.91;5088935;28;1910;-75
2020/12/05 09:22:45;;;;;;;;;;;;;;;21.71;28.34;98297.50;5102606;28;832;-72
2020/12/05 09:25:10;;;;;;;;;;;;;;;21.26;28.84;98294.38;5102343;28;865;-77
2020/12/05 09:27:36;;;;;;;;;;;;;;;21.35;28.89;98302.31;5084715;28;1570;-77
2020/12/05 09:30:03;;;;;;;;;;;;;;;21.67;28.34;98296.78;5091189;28;1187;-76
2020/12/05 09:32:38;;;;;;;;;;;;;;;22.10;27.55;98295.78;5082562;28;1166;-76
2020/12/05 09:35:04;;;;;;;;;;;;;;;22.23;27.30;98301.59;5064650;28;814;-77
2020/12/05 09:37:29;;;;;;;;;;;;;;;22.27;27.26;98293.78;5086937;28;1309;-77
2020/12/05 09:39:55;;;;;;;;;;;;;;;22.43;26.79;98285.25;5078963;28;1999;-77
2020/12/05 09:42:23;;;;;;;;;;;;;;;21.97;27.78;98304.19;5082398;28;936;-76
2020/12/05 09:44:49;;;;;;;;;;;;;;;21.52;28.10;98303.97;5081767;28;881;-75
2020/12/05 09:47:14;;;;;;;;;;;;;;;21.45;28.52;98296.44;5098087;28;1077;-79
2020/12/05 09:49:40;;;;;;;;;;;;;;;21.01;29.13;98301.34;5085079;28;927;-80
2020/12/05 09:52:05;;;;;;;;;;;;;;;22.02;28.03;98297.19;5087668;28;852;-79
2020/12/05 09:54:31;;;;;;;;;;;;;;;22.41;27.32;98303.97;5087085;28;952;-78
2020/12/05 09:56:56;;;;;;;;;;;;;;;22.53;26.87;98300.41;5102898;28;924;-78
2020/12/05 09:59:22;;;;;;;;;;;;;;;22.56;26.85;98305.22;5101900;28;939;-78
2020/12/05 10:01:47;;;;;;;;;;;;;;;22.58;26.77;98300.66;5102476;28;1976;-76
2020/12/05 10:04:15;;;;;;;;;;;;;;;22.28;27.06;98296.19;5102487;28;721;-76
2020/12/05 10:06:41;;;;;;;;;;;;;;;21.73;27.61;98292.19;5084818;28;859;-78
2020/12/05 10:09:06;;;;;;;;;;;;;;;21.48;27.96;98295.56;5082057;28;929;-78
2020/12/05 10:11:32;;;;;;;;;;;;;;;21.61;28.12;98289.25;5081061;28;911;-77
2020/12/05 10:13:57;;;;;;;;;;;;;;;21.88;28.20;98294.69;5083651;28;828;-77
2020/12/05 10:16:23;;;;;;;;;;;;;;;22.36;27.35;98297.59;5102800;28;686;-76
2020/12/05 10:18:48;;;;;;;;;;;;;;;22.36;27.31;98296.78;5070439;28;836;-77
2020/12/05 10:21:14;;;;;;;;;;;;;;;22.53;27.14;98286.22;5081904;28;1906;-78
2020/12/05 10:23:39;;;;;;;;;;;;;;;21.96;27.64;98287.63;5101293;28;976;-78
2020/12/05 10:26:05;;;;;;;;;;;;;;;21.74;27.78;98290.94;5068746;28;856;-76
2020/12/05 10:28:31;;;;;;;;;;;;;;;21.58;27.85;98288.88;5077060;28;1390;-76
2020/12/05 10:30:56;;;;;;;;;;;;;;;21.87;28.04;98293.91;5093495;28;879;-75
2020/12/05 10:33:22;;;;;;;;;;;;;;;22.40;27.34;98274.81;5083170;28;857;-74
2020/12/05 10:35:47;;;;;;;;;;;;;;;22.47;27.07;98285.97;5096254;28;880;-76
2020/12/05 10:38:12;;;;;;;;;;;;;;;22.58;26.84;98291.38;5080452;28;993;-76
2020/12/05 10:40:38;;;;;;;;;;;;;;;22.12;27.17;98286.84;5080278;28;1977;-74
2020/12/05 10:43:05;;;;;;;;;;;;;;;21.61;27.99;98287.22;5080185;28;922;-76
2020/12/05 10:45:31;;;;;;;;;;;;;;;21.48;28.42;98295.56;5080513;28;828;-75
2020/12/05 10:47:56;;;;;;;;;;;;;;;21.40;28.55;98281.97;5080505;28;1083;-74
2020/12/05 10:50:22;;;;;;;;;;;;;;;21.62;28.67;98283.13;5080509;28;828;-75
2020/12/05 10:52:47;;;;;;;;;;;;;;;22.02;27.90;98274.50;5080138;28;1027;-75
2020/12/05 10:55:13;;;;;;;;;;;;;;;22.31;27.57;98286.00;5080143;28;853;-76
2020/12/05 10:57:38;;;;;;;;;;;;;;;22.47;27.33;98285.19;5062985;28;829;-75
2020/12/05 11:00:04;;;;;;;;;;;;;;;22.45;27.22;98282.00;5080107;28;1922;-76
2020/12/05 11:02:29;;;;;;;;;;;;;;;22.09;27.48;98282.84;5080537;28;872;-76
2020/12/05 11:04:55;;;;;;;;;;;;;;;21.69;28.03;98277.31;5079998;28;848;-74
2020/12/05 11:07:20;;;;;;;;;;;;;;;21.42;28.20;98285.19;5080236;28;875;-75
2020/12/05 11:09:45;;;;;;;;;;;;;;;21.38;28.51;98278.81;5079822;28;1018;-77
2020/12/05 11:12:11;;;;;;;;;;;;;;;21.98;28.33;98279.50;5079877;28;883;-77
2020/12/05 11:14:36;;;;;;;;;;;;;;;22.26;27.76;98287.31;5079993;28;1077;-76
2020/12/05 11:17:02;;;;;;;;;;;;;;;22.39;27.50;98278.13;5080236;28;836;-75
2020/12/05 11:19:27;;;;;;;;;;;;;;;22.61;27.24;98274.28;5080224;28;836;-76
2020/12/05 11:21:53;;;;;;;;;;;;;;;22.20;27.18;98274.91;5080073;28;1898;-75
2020/12/05 11:24:18;;;;;;;;;;;;;;;21.51;28.31;98271.25;5080013;28;832;-77
2020/12/05 11:26:45;;;;;;;;;;;;;;;21.51;28.47;98271.25;5080265;28;832;-75
2020/12/05 11:29:10;;;;;;;;;;;;;;;21.38;28.67;98273.16;5079537;28;944;-76
2020/12/05 11:31:36;;;;;;;;;;;;;;;21.73;28.77;98271.56;5080174;28;1006;-76
2020/12/05 11:34:01;;;;;;;;;;;;;;;22.16;27.60;98265.69;5080583;28;793;-77
2020/12/05 11:36:27;;;;;;;;;;;;;;;22.38;27.55;98265.16;5080624;28;884;-77
2020/12/05 11:38:52;;;;;;;;;;;;;;;22.62;27.13;98269.38;5079840;28;843;-76
2020/12/05 11:41:18;;;;;;;;;;;;;;;22.16;27.63;98271.38;5080277;28;1959;-76
2020/12/05 11:43:43;;;;;;;;;;;;;;;21.82;28.17;98269.72;5079333;28;862;-78
2020/12/05 11:46:09;;;;;;;;;;;;;;;21.50;28.23;98263.97;5079836;28;868;-76
2020/12/05 11:48:34;;;;;;;;;;;;;;;21.68;28.30;98264.38;5075890;28;1304;-77
2020/12/05 11:51:00;;;;;;;;;;;;;;;21.56;28.79;98265.06;5097043;28;868;-76
2020/12/05 11:53:25;;;;;;;;;;;;;;;22.01;27.99;98270.09;5079878;28;709;-76
2020/12/05 11:55:52;;;;;;;;;;;;;;;22.21;27.67;98279.34;5081420;28;824;-77
2020/12/05 11:58:17;;;;;;;;;;;;;;;22.30;27.24;98271.03;5088508;28;882;-77
2020/12/05 12:00:43;;;;;;;;;;;;;;;22.58;26.92;98275.16;5080801;28;1969;-77
2020/12/05 12:03:08;;;;;;;;;;;;;;;22.43;27.30;98275.97;5063504;28;927;-79
2020/12/05 12:05:34;;;;;;;;;;;;;;;21.58;28.42;98273.91;5082272;28;828;-79
2020/12/05 12:07:59;;;;;;;;;;;;;;;21.61;28.34;98270.22;5081885;28;673;-79
2020/12/05 12:10:25;;;;;;;;;;;;;;;21.23;28.57;98281.91;5082793;28;851;-79
2020/12/05 12:12:50;;;;;;;;;;;;;;;21.83;28.52;98271.31;5086040;28;975;-79
2020/12/05 12:15:16;;;;;;;;;;;;;;;22.08;27.74;98276.41;5068703;28;867;-79
2020/12/05 12:17:42;;;;;;;;;;;;;;;22.27;27.46;98280.41;5068207;28;837;-78
2020/12/05 12:20:07;;;;;;;;;;;;;;;22.57;26.82;98278.44;5084631;28;1894;-78
2020/12/05 12:22:33;;;;;;;;;;;;;;;22.60;26.75;98286.06;5085429;28;895;-79
2020/12/05 12:24:58;;;;;;;;;;;;;;;21.71;27.92;98280.50;5084989;28;922;-77
2020/12/05 12:27:24;;;;;;;;;;;;;;;21.66;28.03;98289.53;5085339;28;851;-78
2020/12/05 12:29:49;;;;;;;;;;;;;;;21.79;27.50;98290.41;5084857;28;1011;-79
2020/12/05 12:32:15;;;;;;;;;;;;;;;21.61;28.12;98287.22;5065596;28;665;-79
2020/12/05 12:34:40;;;;;;;;;;;;;;;21.62;28.92;98285.97;5068932;28;852;-79
2020/12/05 12:37:06;;;;;;;;;;;;;;;22.27;27.65;98291.75;5074278;28;869;-79
2020/12/05 12:39:31;;;;;;;;;;;;;;;22.63;27.01;98294.47;5083292;28;884;-78
2020/12/05 12:41:57;;;;;;;;;;;;;;;22.58;26.92;98291.38;5085442;28;1957;-77
2020/12/05 12:44:22;;;;;;;;;;;;;;;22.64;26.92;98289.63;5100776;28;871;-79
2020/12/05 12:46:56;;;;;;;;;;;;;;;21.47;28.28;98287.50;5105868;28;895;-78
2020/12/05 12:49:22;;;;;;;;;;;;;;;21.62;28.23;98305.78;5104691;28;654;-78
2020/12/05 12:51:47;;;;;;;;;;;;;;;21.12;28.96;98298.28;5105176;28;1041;-77
2020/12/05 12:54:13;;;;;;;;;;;;;;;21.66;28.34;98289.53;5088437;28;986;-78
2020/12/05 12:56:40;;;;;;;;;;;;;;;22.01;27.86;98298.41;5085140;28;853;-78
2020/12/05 12:59:05;;;;;;;;;;;;;;;22.45;27.34;98299.03;5084430;28;889;-78
2020/12/05 13:01:31;;;;;;;;;;;;;;;22.68;26.62;98301.63;5085713;28;1975;-78